sensor_id;sensor_type;location;lat;lon;timestamp;P1;durP1;ratioP1;P2;durP2;ratioP2
51987;SDS011;38003;52.012;4.346;2024-01-27T00:02:24;12.90;;;2.90;;
51987;SDS011;38003;52.012;4.346;2024-01-27T00:04:52;7.17;;;2.87;;
51987;SDS011;38003;52.012;4.346;2024-01-27T00:07:21;9.93;;;2.13;;
51987;SDS011;38003;52.012;4.346;2024-01-27T00:09:51;11.00;;;3.00;;
51987;SDS011;38003;52.012;4.346;2024-01-27T00:12:21;12.60;;;3.17;;
51987;SDS011;38003;52.012;4.346;2024-01-27T00:14:50;12.07;;;2.40;;
51987;SDS011;38003;52.012;4.346;2024-01-27T00:17:18;11.37;;;2.70;;
51987;SDS011;38003;52.012;4.346;2024-01-27T00:19:50;14.27;;;3.03;;
51987;SDS011;38003;52.012;4.346;2024-01-27T00:22:18;14.60;;;2.70;;
51987;SDS011;38003;52.012;4.346;2024-01-27T00:24:47;9.10;;;3.13;;
51987;SDS011;38003;52.012;4.346;2024-01-27T00:27:16;13.17;;;2.93;;
51987;SDS011;38003;52.012;4.346;2024-01-27T00:29:46;10.63;;;2.50;;
51987;SDS011;38003;52.012;4.346;2024-01-27T00:32:14;11.63;;;2.33;;
51987;SDS011;38003;52.012;4.346;2024-01-27T00:34:43;13.90;;;2.70;;
51987;SDS011;38003;52.012;4.346;2024-01-27T00:37:11;11.60;;;2.50;;
51987;SDS011;38003;52.012;4.346;2024-01-27T00:39:39;9.53;;;3.40;;
51987;SDS011;38003;52.012;4.346;2024-01-27T00:42:08;10.00;;;2.67;;
51987;SDS011;38003;52.012;4.346;2024-01-27T00:44:36;14.40;;;2.77;;
51987;SDS011;38003;52.012;4.346;2024-01-27T00:47:06;8.83;;;2.90;;
51987;SDS011;38003;52.012;4.346;2024-01-27T00:49:34;15.10;;;3.93;;
51987;SDS011;38003;52.012;4.346;2024-01-27T00:52:02;12.20;;;3.63;;
51987;SDS011;38003;52.012;4.346;2024-01-27T00:54:31;17.67;;;3.60;;
51987;SDS011;38003;52.012;4.346;2024-01-27T00:56:59;11.67;;;3.17;;
51987;SDS011;38003;52.012;4.346;2024-01-27T00:59:28;11.90;;;3.00;;
51987;SDS011;38003;52.012;4.346;2024-01-27T01:01:56;13.33;;;3.00;;
51987;SDS011;38003;52.012;4.346;2024-01-27T01:04:25;11.90;;;3.20;;
51987;SDS011;38003;52.012;4.346;2024-01-27T01:06:54;19.07;;;4.03;;
51987;SDS011;38003;52.012;4.346;2024-01-27T01:09:22;14.63;;;3.67;;
51987;SDS011;38003;52.012;4.346;2024-01-27T01:11:51;11.80;;;2.90;;
51987;SDS011;38003;52.012;4.346;2024-01-27T01:14:20;10.70;;;3.30;;
51987;SDS011;38003;52.012;4.346;2024-01-27T01:16:48;11.50;;;2.90;;
51987;SDS011;38003;52.012;4.346;2024-01-27T01:19:16;12.73;;;2.87;;
51987;SDS011;38003;52.012;4.346;2024-01-27T01:21:46;11.63;;;3.20;;
51987;SDS011;38003;52.012;4.346;2024-01-27T01:24:14;14.07;;;3.13;;
51987;SDS011;38003;52.012;4.346;2024-01-27T01:26:43;13.13;;;3.17;;
51987;SDS011;38003;52.012;4.346;2024-01-27T01:29:11;12.43;;;2.83;;
51987;SDS011;38003;52.012;4.346;2024-01-27T01:31:41;13.93;;;2.60;;
51987;SDS011;38003;52.012;4.346;2024-01-27T01:34:09;12.20;;;2.60;;
51987;SDS011;38003;52.012;4.346;2024-01-27T01:36:38;12.27;;;2.57;;
51987;SDS011;38003;52.012;4.346;2024-01-27T01:39:07;13.20;;;2.80;;
51987;SDS011;38003;52.012;4.346;2024-01-27T01:41:36;14.40;;;2.77;;
51987;SDS011;38003;52.012;4.346;2024-01-27T01:44:04;11.60;;;2.67;;
51987;SDS011;38003;52.012;4.346;2024-01-27T01:46:32;9.40;;;2.40;;
51987;SDS011;38003;52.012;4.346;2024-01-27T01:49:01;11.83;;;2.87;;
51987;SDS011;38003;52.012;4.346;2024-01-27T01:51:29;13.70;;;2.63;;
51987;SDS011;38003;52.012;4.346;2024-01-27T01:53:58;15.30;;;2.70;;
51987;SDS011;38003;52.012;4.346;2024-01-27T01:56:28;14.07;;;3.17;;
51987;SDS011;38003;52.012;4.346;2024-01-27T01:58:56;14.60;;;2.73;;
51987;SDS011;38003;52.012;4.346;2024-01-27T02:01:25;16.70;;;3.27;;
51987;SDS011;38003;52.012;4.346;2024-01-27T02:03:53;8.43;;;2.60;;
51987;SDS011;38003;52.012;4.346;2024-01-27T02:06:22;8.60;;;2.23;;
51987;SDS011;38003;52.012;4.346;2024-01-27T02:08:50;10.77;;;3.07;;
51987;SDS011;38003;52.012;4.346;2024-01-27T02:11:19;9.57;;;2.60;;
51987;SDS011;38003;52.012;4.346;2024-01-27T02:13:48;12.73;;;3.53;;
51987;SDS011;38003;52.012;4.346;2024-01-27T02:16:17;14.80;;;2.53;;
51987;SDS011;38003;52.012;4.346;2024-01-27T02:18:46;12.90;;;3.10;;
51987;SDS011;38003;52.012;4.346;2024-01-27T02:21:14;13.50;;;2.80;;
51987;SDS011;38003;52.012;4.346;2024-01-27T02:23:43;11.87;;;2.60;;
51987;SDS011;38003;52.012;4.346;2024-01-27T02:26:12;12.93;;;2.73;;
51987;SDS011;38003;52.012;4.346;2024-01-27T02:28:41;14.27;;;3.00;;
51987;SDS011;38003;52.012;4.346;2024-01-27T02:31:09;13.33;;;2.93;;
51987;SDS011;38003;52.012;4.346;2024-01-27T02:33:37;14.27;;;2.70;;
51987;SDS011;38003;52.012;4.346;2024-01-27T02:36:06;15.93;;;3.30;;
51987;SDS011;38003;52.012;4.346;2024-01-27T02:38:34;14.07;;;3.30;;
51987;SDS011;38003;52.012;4.346;2024-01-27T02:41:02;16.17;;;3.40;;
51987;SDS011;38003;52.012;4.346;2024-01-27T02:43:32;12.63;;;2.73;;
51987;SDS011;38003;52.012;4.346;2024-01-27T02:46:00;10.17;;;2.83;;
51987;SDS011;38003;52.012;4.346;2024-01-27T02:48:29;15.67;;;3.40;;
51987;SDS011;38003;52.012;4.346;2024-01-27T02:50:57;9.57;;;2.90;;
51987;SDS011;38003;52.012;4.346;2024-01-27T02:53:25;10.50;;;3.10;;
51987;SDS011;38003;52.012;4.346;2024-01-27T02:55:54;11.10;;;3.03;;
51987;SDS011;38003;52.012;4.346;2024-01-27T02:58:22;13.40;;;3.20;;
51987;SDS011;38003;52.012;4.346;2024-01-27T03:00:52;16.13;;;4.53;;
51987;SDS011;38003;52.012;4.346;2024-01-27T03:03:20;13.57;;;3.60;;
51987;SDS011;38003;52.012;4.346;2024-01-27T03:05:49;14.40;;;4.13;;
51987;SDS011;38003;52.012;4.346;2024-01-27T03:08:17;11.90;;;4.47;;
51987;SDS011;38003;52.012;4.346;2024-01-27T03:10:45;14.60;;;4.73;;
51987;SDS011;38003;52.012;4.346;2024-01-27T03:13:14;14.70;;;5.63;;
51987;SDS011;38003;52.012;4.346;2024-01-27T03:15:42;16.00;;;5.53;;
51987;SDS011;38003;52.012;4.346;2024-01-27T03:18:11;10.83;;;4.87;;
51987;SDS011;38003;52.012;4.346;2024-01-27T03:20:40;13.10;;;5.30;;
51987;SDS011;38003;52.012;4.346;2024-01-27T03:23:08;12.03;;;5.00;;
51987;SDS011;38003;52.012;4.346;2024-01-27T03:25:36;11.37;;;4.30;;
51987;SDS011;38003;52.012;4.346;2024-01-27T03:28:05;8.73;;;3.77;;
51987;SDS011;38003;52.012;4.346;2024-01-27T03:30:33;12.87;;;4.27;;
51987;SDS011;38003;52.012;4.346;2024-01-27T03:33:02;14.37;;;4.80;;
51987;SDS011;38003;52.012;4.346;2024-01-27T03:35:31;13.00;;;4.80;;
51987;SDS011;38003;52.012;4.346;2024-01-27T03:38:00;14.17;;;5.10;;
51987;SDS011;38003;52.012;4.346;2024-01-27T03:40:30;14.50;;;5.43;;
51987;SDS011;38003;52.012;4.346;2024-01-27T03:42:58;14.83;;;5.17;;
51987;SDS011;38003;52.012;4.346;2024-01-27T03:45:26;13.93;;;4.60;;
51987;SDS011;38003;52.012;4.346;2024-01-27T03:47:55;13.97;;;4.70;;
51987;SDS011;38003;52.012;4.346;2024-01-27T03:50:24;14.93;;;4.60;;
51987;SDS011;38003;52.012;4.346;2024-01-27T03:52:53;13.40;;;4.07;;
51987;SDS011;38003;52.012;4.346;2024-01-27T03:55:22;15.00;;;4.50;;
51987;SDS011;38003;52.012;4.346;2024-01-27T03:57:50;13.37;;;4.90;;
51987;SDS011;38003;52.012;4.346;2024-01-27T04:00:18;12.77;;;4.63;;
51987;SDS011;38003;52.012;4.346;2024-01-27T04:02:47;14.03;;;5.70;;
51987;SDS011;38003;52.012;4.346;2024-01-27T04:05:15;17.93;;;5.37;;
51987;SDS011;38003;52.012;4.346;2024-01-27T04:07:43;15.27;;;6.20;;
51987;SDS011;38003;52.012;4.346;2024-01-27T04:10:13;12.63;;;5.20;;
51987;SDS011;38003;52.012;4.346;2024-01-27T04:12:42;13.63;;;6.13;;
51987;SDS011;38003;52.012;4.346;2024-01-27T04:15:10;12.67;;;6.53;;
51987;SDS011;38003;52.012;4.346;2024-01-27T04:17:40;15.23;;;6.27;;
51987;SDS011;38003;52.012;4.346;2024-01-27T04:20:09;14.80;;;6.10;;
51987;SDS011;38003;52.012;4.346;2024-01-27T04:22:38;15.53;;;6.63;;
51987;SDS011;38003;52.012;4.346;2024-01-27T04:25:06;15.03;;;5.77;;
51987;SDS011;38003;52.012;4.346;2024-01-27T04:27:38;15.43;;;6.30;;
51987;SDS011;38003;52.012;4.346;2024-01-27T04:30:06;14.33;;;6.73;;
51987;SDS011;38003;52.012;4.346;2024-01-27T04:32:35;11.00;;;7.30;;
51987;SDS011;38003;52.012;4.346;2024-01-27T04:35:04;17.83;;;8.33;;
51987;SDS011;38003;52.012;4.346;2024-01-27T04:37:32;13.77;;;7.97;;
51987;SDS011;38003;52.012;4.346;2024-01-27T04:40:00;18.07;;;7.83;;
51987;SDS011;38003;52.012;4.346;2024-01-27T04:42:29;17.67;;;9.17;;
51987;SDS011;38003;52.012;4.346;2024-01-27T04:44:58;16.23;;;7.93;;
51987;SDS011;38003;52.012;4.346;2024-01-27T04:47:27;17.37;;;7.27;;
51987;SDS011;38003;52.012;4.346;2024-01-27T04:49:55;15.23;;;7.87;;
51987;SDS011;38003;52.012;4.346;2024-01-27T04:52:23;13.90;;;8.83;;
51987;SDS011;38003;52.012;4.346;2024-01-27T04:54:52;16.37;;;9.13;;
51987;SDS011;38003;52.012;4.346;2024-01-27T04:57:20;18.70;;;9.43;;
51987;SDS011;38003;52.012;4.346;2024-01-27T04:59:48;18.40;;;8.83;;
51987;SDS011;38003;52.012;4.346;2024-01-27T05:02:18;16.80;;;8.80;;
51987;SDS011;38003;52.012;4.346;2024-01-27T05:04:47;15.80;;;10.60;;
51987;SDS011;38003;52.012;4.346;2024-01-27T05:07:15;17.20;;;9.43;;
51987;SDS011;38003;52.012;4.346;2024-01-27T05:09:44;20.57;;;9.50;;
51987;SDS011;38003;52.012;4.346;2024-01-27T05:12:12;17.80;;;8.20;;
51987;SDS011;38003;52.012;4.346;2024-01-27T05:14:43;18.27;;;9.20;;
51987;SDS011;38003;52.012;4.346;2024-01-27T05:17:11;16.07;;;8.63;;
51987;SDS011;38003;52.012;4.346;2024-01-27T05:19:41;15.10;;;9.03;;
51987;SDS011;38003;52.012;4.346;2024-01-27T05:22:09;11.97;;;8.07;;
51987;SDS011;38003;52.012;4.346;2024-01-27T05:24:37;18.47;;;9.30;;
51987;SDS011;38003;52.012;4.346;2024-01-27T05:27:05;14.63;;;8.83;;
51987;SDS011;38003;52.012;4.346;2024-01-27T05:29:33;18.80;;;8.97;;
51987;SDS011;38003;52.012;4.346;2024-01-27T05:32:02;13.20;;;7.50;;
51987;SDS011;38003;52.012;4.346;2024-01-27T05:34:30;17.73;;;7.83;;
51987;SDS011;38003;52.012;4.346;2024-01-27T05:37:00;16.63;;;7.97;;
51987;SDS011;38003;52.012;4.346;2024-01-27T05:39:28;12.40;;;8.33;;
51987;SDS011;38003;52.012;4.346;2024-01-27T05:41:58;17.43;;;8.83;;
51987;SDS011;38003;52.012;4.346;2024-01-27T05:44:27;20.20;;;9.23;;
51987;SDS011;38003;52.012;4.346;2024-01-27T05:46:55;14.37;;;7.73;;
51987;SDS011;38003;52.012;4.346;2024-01-27T05:49:23;12.73;;;8.60;;
51987;SDS011;38003;52.012;4.346;2024-01-27T05:51:51;14.70;;;8.00;;
51987;SDS011;38003;52.012;4.346;2024-01-27T05:54:21;15.57;;;7.57;;
51987;SDS011;38003;52.012;4.346;2024-01-27T05:56:49;15.40;;;7.33;;
51987;SDS011;38003;52.012;4.346;2024-01-27T05:59:18;11.20;;;6.97;;
51987;SDS011;38003;52.012;4.346;2024-01-27T06:01:46;18.97;;;8.10;;
51987;SDS011;38003;52.012;4.346;2024-01-27T06:04:14;16.37;;;8.17;;
51987;SDS011;38003;52.012;4.346;2024-01-27T06:06:43;14.63;;;7.60;;
51987;SDS011;38003;52.012;4.346;2024-01-27T06:09:11;10.53;;;6.87;;
51987;SDS011;38003;52.012;4.346;2024-01-27T06:11:41;16.63;;;7.57;;
51987;SDS011;38003;52.012;4.346;2024-01-27T06:14:09;16.60;;;9.07;;
51987;SDS011;38003;52.012;4.346;2024-01-27T06:16:38;19.83;;;10.07;;
51987;SDS011;38003;52.012;4.346;2024-01-27T06:19:06;15.27;;;8.40;;
51987;SDS011;38003;52.012;4.346;2024-01-27T06:21:35;13.90;;;8.80;;
51987;SDS011;38003;52.012;4.346;2024-01-27T06:24:04;15.97;;;7.97;;
51987;SDS011;38003;52.012;4.346;2024-01-27T06:26:33;13.87;;;7.37;;
51987;SDS011;38003;52.012;4.346;2024-01-27T06:29:02;19.47;;;9.63;;
51987;SDS011;38003;52.012;4.346;2024-01-27T06:31:30;18.10;;;9.17;;
51987;SDS011;38003;52.012;4.346;2024-01-27T06:33:59;13.83;;;9.40;;
51987;SDS011;38003;52.012;4.346;2024-01-27T06:36:27;12.93;;;10.03;;
51987;SDS011;38003;52.012;4.346;2024-01-27T06:38:56;15.63;;;11.27;;
51987;SDS011;38003;52.012;4.346;2024-01-27T06:41:24;15.83;;;11.37;;
51987;SDS011;38003;52.012;4.346;2024-01-27T06:43:53;18.57;;;12.63;;
51987;SDS011;38003;52.012;4.346;2024-01-27T06:46:22;18.30;;;12.63;;
51987;SDS011;38003;52.012;4.346;2024-01-27T06:48:51;17.77;;;11.87;;
51987;SDS011;38003;52.012;4.346;2024-01-27T06:51:19;16.20;;;11.33;;
51987;SDS011;38003;52.012;4.346;2024-01-27T06:53:47;17.47;;;11.20;;
51987;SDS011;38003;52.012;4.346;2024-01-27T06:56:16;21.83;;;12.40;;
51987;SDS011;38003;52.012;4.346;2024-01-27T06:58:44;20.07;;;13.63;;
51987;SDS011;38003;52.012;4.346;2024-01-27T07:01:12;19.97;;;15.17;;
51987;SDS011;38003;52.012;4.346;2024-01-27T07:03:42;17.23;;;14.03;;
51987;SDS011;38003;52.012;4.346;2024-01-27T07:06:11;16.93;;;14.20;;
51987;SDS011;38003;52.012;4.346;2024-01-27T07:08:39;21.90;;;15.13;;
51987;SDS011;38003;52.012;4.346;2024-01-27T07:11:08;24.33;;;16.60;;
51987;SDS011;38003;52.012;4.346;2024-01-27T07:13:36;19.40;;;14.07;;
51987;SDS011;38003;52.012;4.346;2024-01-27T07:16:04;18.50;;;14.87;;
51987;SDS011;38003;52.012;4.346;2024-01-27T07:18:33;21.27;;;14.17;;
51987;SDS011;38003;52.012;4.346;2024-01-27T07:21:03;21.20;;;11.70;;
51987;SDS011;38003;52.012;4.346;2024-01-27T07:23:34;16.57;;;10.83;;
51987;SDS011;38003;52.012;4.346;2024-01-27T07:26:03;17.47;;;10.80;;
51987;SDS011;38003;52.012;4.346;2024-01-27T07:28:31;14.93;;;12.23;;
51987;SDS011;38003;52.012;4.346;2024-01-27T07:31:00;18.63;;;14.23;;
51987;SDS011;38003;52.012;4.346;2024-01-27T07:33:29;19.03;;;13.13;;
51987;SDS011;38003;52.012;4.346;2024-01-27T07:35:57;16.80;;;12.50;;
51987;SDS011;38003;52.012;4.346;2024-01-27T07:38:27;20.87;;;13.73;;
51987;SDS011;38003;52.012;4.346;2024-01-27T07:40:55;23.30;;;14.83;;
51987;SDS011;38003;52.012;4.346;2024-01-27T07:43:25;19.40;;;13.60;;
51987;SDS011;38003;52.012;4.346;2024-01-27T07:45:53;20.40;;;14.30;;
51987;SDS011;38003;52.012;4.346;2024-01-27T07:48:21;19.17;;;13.33;;
51987;SDS011;38003;52.012;4.346;2024-01-27T07:50:50;21.73;;;12.70;;
51987;SDS011;38003;52.012;4.346;2024-01-27T07:53:18;17.07;;;12.93;;
51987;SDS011;38003;52.012;4.346;2024-01-27T07:55:48;20.03;;;12.40;;
51987;SDS011;38003;52.012;4.346;2024-01-27T07:58:17;17.13;;;13.77;;
51987;SDS011;38003;52.012;4.346;2024-01-27T08:00:46;21.27;;;11.67;;
51987;SDS011;38003;52.012;4.346;2024-01-27T08:03:14;15.23;;;11.53;;
51987;SDS011;38003;52.012;4.346;2024-01-27T08:05:42;19.70;;;13.43;;
51987;SDS011;38003;52.012;4.346;2024-01-27T08:08:11;21.10;;;17.20;;
51987;SDS011;38003;52.012;4.346;2024-01-27T08:10:39;24.37;;;17.10;;
51987;SDS011;38003;52.012;4.346;2024-01-27T08:13:09;20.17;;;18.30;;
51987;SDS011;38003;52.012;4.346;2024-01-27T08:15:37;17.83;;;15.97;;
51987;SDS011;38003;52.012;4.346;2024-01-27T08:18:05;23.50;;;16.57;;
51987;SDS011;38003;52.012;4.346;2024-01-27T08:20:34;21.40;;;17.37;;
51987;SDS011;38003;52.012;4.346;2024-01-27T08:23:02;20.50;;;18.50;;
51987;SDS011;38003;52.012;4.346;2024-01-27T08:25:33;21.77;;;19.43;;
51987;SDS011;38003;52.012;4.346;2024-01-27T08:28:01;23.57;;;19.90;;
51987;SDS011;38003;52.012;4.346;2024-01-27T08:30:30;24.87;;;22.27;;
51987;SDS011;38003;52.012;4.346;2024-01-27T08:32:59;24.73;;;22.17;;
51987;SDS011;38003;52.012;4.346;2024-01-27T08:35:27;27.00;;;24.67;;
51987;SDS011;38003;52.012;4.346;2024-01-27T08:37:56;27.00;;;23.17;;
51987;SDS011;38003;52.012;4.346;2024-01-27T08:40:24;24.43;;;22.17;;
51987;SDS011;38003;52.012;4.346;2024-01-27T08:42:52;25.17;;;22.57;;
51987;SDS011;38003;52.012;4.346;2024-01-27T08:45:20;25.10;;;22.70;;
51987;SDS011;38003;52.012;4.346;2024-01-27T08:47:50;24.53;;;22.17;;
51987;SDS011;38003;52.012;4.346;2024-01-27T08:50:19;22.80;;;20.73;;
51987;SDS011;38003;52.012;4.346;2024-01-27T08:52:47;28.30;;;22.00;;
51987;SDS011;38003;52.012;4.346;2024-01-27T08:55:15;25.90;;;23.33;;
51987;SDS011;38003;52.012;4.346;2024-01-27T08:57:45;23.00;;;20.60;;
51987;SDS011;38003;52.012;4.346;2024-01-27T09:00:14;22.67;;;20.67;;
51987;SDS011;38003;52.012;4.346;2024-01-27T09:02:43;23.13;;;20.83;;
51987;SDS011;38003;52.012;4.346;2024-01-27T09:05:12;20.57;;;18.10;;
51987;SDS011;38003;52.012;4.346;2024-01-27T09:07:41;17.73;;;16.00;;
51987;SDS011;38003;52.012;4.346;2024-01-27T09:10:09;17.23;;;15.03;;
51987;SDS011;38003;52.012;4.346;2024-01-27T09:12:41;19.40;;;16.87;;
51987;SDS011;38003;52.012;4.346;2024-01-27T09:15:10;19.27;;;13.03;;
51987;SDS011;38003;52.012;4.346;2024-01-27T09:17:38;19.20;;;14.13;;
51987;SDS011;38003;52.012;4.346;2024-01-27T09:20:09;21.97;;;19.60;;
51987;SDS011;38003;52.012;4.346;2024-01-27T09:22:38;25.60;;;22.87;;
51987;SDS011;38003;52.012;4.346;2024-01-27T09:25:08;25.23;;;23.03;;
51987;SDS011;38003;52.012;4.346;2024-01-27T09:27:36;21.63;;;19.30;;
51987;SDS011;38003;52.012;4.346;2024-01-27T09:30:05;22.00;;;20.03;;
51987;SDS011;38003;52.012;4.346;2024-01-27T09:32:34;24.07;;;21.47;;
51987;SDS011;38003;52.012;4.346;2024-01-27T09:35:03;25.10;;;21.90;;
51987;SDS011;38003;52.012;4.346;2024-01-27T09:37:31;25.47;;;23.03;;
51987;SDS011;38003;52.012;4.346;2024-01-27T09:40:01;21.90;;;19.70;;
51987;SDS011;38003;52.012;4.346;2024-01-27T09:42:30;47.20;;;43.80;;
51987;SDS011;38003;52.012;4.346;2024-01-27T09:45:02;36.80;;;34.10;;
51987;SDS011;38003;52.012;4.346;2024-01-27T09:47:30;28.77;;;26.13;;
51987;SDS011;38003;52.012;4.346;2024-01-27T09:50:01;18.13;;;16.33;;
51987;SDS011;38003;52.012;4.346;2024-01-27T09:52:29;21.17;;;15.97;;
51987;SDS011;38003;52.012;4.346;2024-01-27T09:54:57;20.57;;;16.73;;
51987;SDS011;38003;52.012;4.346;2024-01-27T09:57:27;22.80;;;20.50;;
51987;SDS011;38003;52.012;4.346;2024-01-27T09:59:56;21.20;;;19.00;;
51987;SDS011;38003;52.012;4.346;2024-01-27T10:02:24;21.10;;;19.13;;
51987;SDS011;38003;52.012;4.346;2024-01-27T10:04:57;27.53;;;22.50;;
51987;SDS011;38003;52.012;4.346;2024-01-27T10:07:25;24.67;;;22.10;;
51987;SDS011;38003;52.012;4.346;2024-01-27T10:09:53;24.20;;;21.67;;
51987;SDS011;38003;52.012;4.346;2024-01-27T10:12:22;19.43;;;17.50;;
51987;SDS011;38003;52.012;4.346;2024-01-27T10:14:52;20.90;;;15.23;;
51987;SDS011;38003;52.012;4.346;2024-01-27T10:17:20;16.20;;;13.23;;
51987;SDS011;38003;52.012;4.346;2024-01-27T10:19:58;18.63;;;11.00;;
51987;SDS011;38003;52.012;4.346;2024-01-27T10:22:27;22.87;;;14.80;;
51987;SDS011;38003;52.012;4.346;2024-01-27T10:24:56;20.27;;;14.03;;
51987;SDS011;38003;52.012;4.346;2024-01-27T10:27:24;17.70;;;11.00;;
51987;SDS011;38003;52.012;4.346;2024-01-27T10:29:54;20.27;;;9.50;;
51987;SDS011;38003;52.012;4.346;2024-01-27T10:32:22;12.63;;;7.90;;
51987;SDS011;38003;52.012;4.346;2024-01-27T10:35:00;12.63;;;8.13;;
51987;SDS011;38003;52.012;4.346;2024-01-27T10:37:29;14.30;;;7.23;;
51987;SDS011;38003;52.012;4.346;2024-01-27T10:40:01;20.07;;;8.93;;
51987;SDS011;38003;52.012;4.346;2024-01-27T10:42:30;16.50;;;8.50;;
51987;SDS011;38003;52.012;4.346;2024-01-27T10:45:00;16.50;;;8.33;;
51987;SDS011;38003;52.012;4.346;2024-01-27T10:47:29;17.43;;;7.40;;
51987;SDS011;38003;52.012;4.346;2024-01-27T10:49:57;14.60;;;7.43;;
51987;SDS011;38003;52.012;4.346;2024-01-27T10:52:27;21.47;;;7.47;;
51987;SDS011;38003;52.012;4.346;2024-01-27T10:54:57;18.67;;;7.33;;
51987;SDS011;38003;52.012;4.346;2024-01-27T10:57:27;14.80;;;6.53;;
51987;SDS011;38003;52.012;4.346;2024-01-27T10:59:57;16.70;;;6.77;;
51987;SDS011;38003;52.012;4.346;2024-01-27T11:02:27;15.47;;;7.07;;
51987;SDS011;38003;52.012;4.346;2024-01-27T11:04:56;17.90;;;6.73;;
51987;SDS011;38003;52.012;4.346;2024-01-27T11:07:25;18.20;;;6.93;;
51987;SDS011;38003;52.012;4.346;2024-01-27T11:09:54;15.00;;;7.10;;
51987;SDS011;38003;52.012;4.346;2024-01-27T11:12:23;15.57;;;6.70;;
51987;SDS011;38003;52.012;4.346;2024-01-27T11:14:51;14.57;;;6.90;;
51987;SDS011;38003;52.012;4.346;2024-01-27T11:17:20;14.97;;;6.60;;
51987;SDS011;38003;52.012;4.346;2024-01-27T11:19:49;17.70;;;7.00;;
51987;SDS011;38003;52.012;4.346;2024-01-27T11:22:24;18.37;;;7.07;;
51987;SDS011;38003;52.012;4.346;2024-01-27T11:24:53;17.17;;;7.60;;
51987;SDS011;38003;52.012;4.346;2024-01-27T11:27:26;14.37;;;7.07;;
51987;SDS011;38003;52.012;4.346;2024-01-27T11:29:57;13.23;;;7.17;;
51987;SDS011;38003;52.012;4.346;2024-01-27T11:32:26;16.90;;;7.00;;
51987;SDS011;38003;52.012;4.346;2024-01-27T11:34:55;16.87;;;7.20;;
51987;SDS011;38003;52.012;4.346;2024-01-27T11:37:24;13.57;;;7.40;;
51987;SDS011;38003;52.012;4.346;2024-01-27T11:40:03;17.43;;;7.90;;
51987;SDS011;38003;52.012;4.346;2024-01-27T11:42:33;16.77;;;7.30;;
51987;SDS011;38003;52.012;4.346;2024-01-27T11:45:01;15.63;;;7.13;;
51987;SDS011;38003;52.012;4.346;2024-01-27T11:47:30;15.57;;;6.97;;
51987;SDS011;38003;52.012;4.346;2024-01-27T11:50:00;11.53;;;6.27;;
51987;SDS011;38003;52.012;4.346;2024-01-27T11:52:29;17.83;;;6.90;;
51987;SDS011;38003;52.012;4.346;2024-01-27T11:54:58;17.20;;;6.17;;
51987;SDS011;38003;52.012;4.346;2024-01-27T11:57:26;17.23;;;7.20;;
51987;SDS011;38003;52.012;4.346;2024-01-27T11:59:55;17.07;;;6.73;;
51987;SDS011;38003;52.012;4.346;2024-01-27T12:02:23;17.50;;;6.97;;
51987;SDS011;38003;52.012;4.346;2024-01-27T12:04:52;15.13;;;6.10;;
51987;SDS011;38003;52.012;4.346;2024-01-27T12:07:22;15.13;;;5.27;;
51987;SDS011;38003;52.012;4.346;2024-01-27T12:09:50;17.30;;;5.83;;
51987;SDS011;38003;52.012;4.346;2024-01-27T12:12:19;15.23;;;5.80;;
51987;SDS011;38003;52.012;4.346;2024-01-27T12:14:48;15.97;;;5.67;;
51987;SDS011;38003;52.012;4.346;2024-01-27T12:17:17;16.77;;;6.50;;
51987;SDS011;38003;52.012;4.346;2024-01-27T12:19:46;14.20;;;5.73;;
51987;SDS011;38003;52.012;4.346;2024-01-27T12:22:22;17.70;;;5.73;;
51987;SDS011;38003;52.012;4.346;2024-01-27T12:24:52;15.67;;;5.53;;
51987;SDS011;38003;52.012;4.346;2024-01-27T12:27:21;14.17;;;5.40;;
51987;SDS011;38003;52.012;4.346;2024-01-27T12:29:50;14.97;;;4.93;;
51987;SDS011;38003;52.012;4.346;2024-01-27T12:32:18;18.93;;;6.87;;
51987;SDS011;38003;52.012;4.346;2024-01-27T12:34:46;16.47;;;5.40;;
51987;SDS011;38003;52.012;4.346;2024-01-27T12:37:17;16.57;;;5.10;;
51987;SDS011;38003;52.012;4.346;2024-01-27T12:39:46;17.27;;;5.27;;
51987;SDS011;38003;52.012;4.346;2024-01-27T12:42:17;20.47;;;5.37;;
51987;SDS011;38003;52.012;4.346;2024-01-27T12:44:45;13.00;;;5.03;;
51987;SDS011;38003;52.012;4.346;2024-01-27T12:47:13;13.23;;;4.90;;
51987;SDS011;38003;52.012;4.346;2024-01-27T12:49:42;18.23;;;4.93;;
51987;SDS011;38003;52.012;4.346;2024-01-27T12:52:10;15.70;;;4.83;;
51987;SDS011;38003;52.012;4.346;2024-01-27T12:54:39;13.80;;;4.67;;
51987;SDS011;38003;52.012;4.346;2024-01-27T12:57:09;15.53;;;4.80;;
51987;SDS011;38003;52.012;4.346;2024-01-27T12:59:37;12.83;;;4.63;;
51987;SDS011;38003;52.012;4.346;2024-01-27T13:02:05;17.07;;;5.17;;
51987;SDS011;38003;52.012;4.346;2024-01-27T13:04:34;14.60;;;4.17;;
51987;SDS011;38003;52.012;4.346;2024-01-27T13:07:02;13.80;;;4.77;;
51987;SDS011;38003;52.012;4.346;2024-01-27T13:09:31;14.77;;;4.90;;
51987;SDS011;38003;52.012;4.346;2024-01-27T13:11:59;12.30;;;4.30;;
51987;SDS011;38003;52.012;4.346;2024-01-27T13:14:29;17.33;;;5.80;;
51987;SDS011;38003;52.012;4.346;2024-01-27T13:16:57;12.67;;;4.67;;
51987;SDS011;38003;52.012;4.346;2024-01-27T13:19:26;17.23;;;5.23;;
51987;SDS011;38003;52.012;4.346;2024-01-27T13:21:54;12.57;;;5.00;;
51987;SDS011;38003;52.012;4.346;2024-01-27T13:24:22;13.07;;;4.30;;
51987;SDS011;38003;52.012;4.346;2024-01-27T13:26:51;10.53;;;4.67;;
51987;SDS011;38003;52.012;4.346;2024-01-27T13:29:20;13.30;;;4.73;;
51987;SDS011;38003;52.012;4.346;2024-01-27T13:31:50;13.53;;;4.97;;
51987;SDS011;38003;52.012;4.346;2024-01-27T13:34:19;18.33;;;5.77;;
51987;SDS011;38003;52.012;4.346;2024-01-27T13:36:47;18.80;;;5.17;;
51987;SDS011;38003;52.012;4.346;2024-01-27T13:39:16;16.83;;;5.20;;
51987;SDS011;38003;52.012;4.346;2024-01-27T13:41:44;17.33;;;5.00;;
51987;SDS011;38003;52.012;4.346;2024-01-27T13:44:12;15.00;;;6.00;;
51987;SDS011;38003;52.012;4.346;2024-01-27T13:46:40;17.40;;;5.60;;
51987;SDS011;38003;52.012;4.346;2024-01-27T13:49:10;16.90;;;5.70;;
51987;SDS011;38003;52.012;4.346;2024-01-27T13:51:39;13.70;;;4.90;;
51987;SDS011;38003;52.012;4.346;2024-01-27T13:54:07;14.20;;;4.67;;
51987;SDS011;38003;52.012;4.346;2024-01-27T13:56:36;14.60;;;4.40;;
51987;SDS011;38003;52.012;4.346;2024-01-27T13:59:04;13.90;;;4.00;;
51987;SDS011;38003;52.012;4.346;2024-01-27T14:01:32;13.53;;;4.80;;
51987;SDS011;38003;52.012;4.346;2024-01-27T14:04:01;16.03;;;4.60;;
51987;SDS011;38003;52.012;4.346;2024-01-27T14:06:31;16.90;;;4.50;;
51987;SDS011;38003;52.012;4.346;2024-01-27T14:09:00;11.83;;;3.93;;
51987;SDS011;38003;52.012;4.346;2024-01-27T14:11:29;15.57;;;3.70;;
51987;SDS011;38003;52.012;4.346;2024-01-27T14:13:57;17.03;;;4.83;;
51987;SDS011;38003;52.012;4.346;2024-01-27T14:16:25;14.33;;;4.00;;
51987;SDS011;38003;52.012;4.346;2024-01-27T14:18:55;11.03;;;3.93;;
51987;SDS011;38003;52.012;4.346;2024-01-27T14:21:24;15.27;;;3.67;;
51987;SDS011;38003;52.012;4.346;2024-01-27T14:23:55;16.03;;;4.00;;
51987;SDS011;38003;52.012;4.346;2024-01-27T14:26:27;17.53;;;4.77;;
51987;SDS011;38003;52.012;4.346;2024-01-27T14:28:55;15.57;;;4.10;;
51987;SDS011;38003;52.012;4.346;2024-01-27T14:31:24;13.57;;;3.83;;
51987;SDS011;38003;52.012;4.346;2024-01-27T14:33:52;12.20;;;4.30;;
51987;SDS011;38003;52.012;4.346;2024-01-27T14:36:21;14.07;;;4.50;;
51987;SDS011;38003;52.012;4.346;2024-01-27T14:38:50;13.57;;;4.83;;
51987;SDS011;38003;52.012;4.346;2024-01-27T14:41:20;15.63;;;4.60;;